Lynn, North Carolina
Current Conditions -  °F | °C
As of 10:55 AM on Friday 19 Dec 2014 (Local Time) from KFQD Reporting Station
Clear Clear  
Wind Chill: 50°   Ceiling: Unl
Heat Index: 50°   Visibility: 10mi
Dew Point: 30°   Wind: 5mph
Humidity: 47%   Direction: 280°W
Pressure: 30.17"   Gusts: NA
Location:  35.23°N, 82.23°W
Report Text: KFQD 191555Z AUTO 28004KT 10SM CLR 10/M01 A3017 RMK AO2 T01011009
Loading
Personal Weather Stations






























Interactive Weather Map New forecast layout! Learn more

10-Day Weather Forecast

Advertisements
Track Severe Weather on mobile